createdAt,value
2023-02-06T00:01:57.780Z,103084.22
2023-02-06T00:04:24.280Z,103086.91
2023-02-06T00:06:50.884Z,103093.00
2023-02-06T00:09:17.447Z,103089.53
2023-02-06T00:11:44.023Z,103093.63
2023-02-06T00:14:10.582Z,103082.47
2023-02-06T00:16:37.261Z,103080.72
2023-02-06T00:19:03.931Z,103076.22
2023-02-06T00:21:30.890Z,103072.66
2023-02-06T00:23:58.761Z,103072.56
2023-02-06T00:26:25.693Z,103070.63
2023-02-06T00:28:52.453Z,103069.72
2023-02-06T00:31:19.114Z,103072.38
2023-02-06T00:33:45.831Z,103080.19
2023-02-06T00:36:12.356Z,103093.91
2023-02-06T00:38:39.258Z,103086.88
2023-02-06T00:41:05.981Z,103086.19
2023-02-06T00:43:32.661Z,103080.06
2023-02-06T00:45:59.350Z,103085.75
2023-02-06T00:48:26.088Z,103087.53
2023-02-06T00:50:53.164Z,103085.19
2023-02-06T00:53:19.969Z,103100.72
2023-02-06T00:55:46.476Z,103095.53
2023-02-06T00:58:13.069Z,103093.06
2023-02-06T01:00:39.596Z,103096.63
2023-02-06T01:03:06.264Z,103094.44
2023-02-06T01:05:32.916Z,103093.38
2023-02-06T01:07:59.564Z,103089.22
2023-02-06T01:10:26.132Z,103099.47
2023-02-06T01:12:53.911Z,103112.28
2023-02-06T01:15:20.520Z,103126.00
2023-02-06T01:17:47.086Z,103133.94
2023-02-06T01:20:13.945Z,103113.59
2023-02-06T01:22:40.743Z,103118.81
2023-02-06T01:25:07.489Z,103126.81
2023-02-06T01:27:36.058Z,103131.91
2023-02-06T01:30:02.812Z,103128.22
2023-02-06T01:32:29.373Z,103126.56
2023-02-06T01:34:55.902Z,103127.19
2023-02-06T01:37:22.460Z,103115.94
2023-02-06T01:39:49.011Z,103119.13
2023-02-06T01:42:15.638Z,103126.94
2023-02-06T01:44:42.239Z,103124.28
2023-02-06T01:47:09.754Z,103121.00
2023-02-06T01:49:36.338Z,103115.91
2023-02-06T01:52:14.451Z,103110.91
2023-02-06T01:54:41.660Z,103115.34
2023-02-06T01:57:11.039Z,103112.53
2023-02-06T01:59:38.268Z,103131.34
2023-02-06T02:02:04.927Z,103132.13
2023-02-06T02:04:32.629Z,103137.19
2023-02-06T02:07:15.160Z,103148.41
2023-02-06T02:09:41.729Z,103142.16
2023-02-06T02:12:08.324Z,103151.38
2023-02-06T02:14:35.637Z,103153.16
2023-02-06T02:17:20.979Z,103155.00
2023-02-06T02:19:56.553Z,103158.50
2023-02-06T02:22:23.046Z,103147.91
2023-02-06T02:25:08.253Z,103149.59
2023-02-06T02:27:50.097Z,103151.31
2023-02-06T02:30:16.641Z,103154.78
2023-02-06T02:32:55.515Z,103157.41
2023-02-06T02:35:28.823Z,103139.50
2023-02-06T02:38:14.292Z,103136.91
2023-02-06T02:40:43.830Z,103128.03
2023-02-06T02:43:29.112Z,103133.19
2023-02-06T02:45:59.276Z,103129.72
2023-02-06T02:48:28.221Z,103117.66
2023-02-06T02:50:55.695Z,103112.53
2023-02-06T02:53:22.240Z,103123.81
2023-02-06T02:55:48.803Z,103118.44
2023-02-06T02:58:18.422Z,103117.38
2023-02-06T03:00:47.524Z,103119.28
2023-02-06T03:03:14.743Z,103112.97
2023-02-06T03:05:50.010Z,103096.66
2023-02-06T03:08:16.547Z,103084.66
2023-02-06T03:11:01.946Z,103091.53
2023-02-06T03:13:37.313Z,103073.44
2023-02-06T03:16:09.927Z,103081.41
2023-02-06T03:18:41.378Z,103074.34
2023-02-06T03:21:10.426Z,103067.44
2023-02-06T03:23:39.054Z,103066.63
2023-02-06T03:26:08.476Z,103063.72
2023-02-06T03:28:37.611Z,103055.16
2023-02-06T03:31:07.036Z,103056.94
2023-02-06T03:33:55.181Z,103048.25
2023-02-06T03:36:22.093Z,103045.88
2023-02-06T03:38:49.532Z,103052.50
2023-02-06T03:41:17.591Z,103054.28
2023-02-06T03:43:47.002Z,103036.00
2023-02-06T03:46:15.158Z,103028.13
2023-02-06T03:48:47.753Z,103031.47
2023-02-06T03:51:30.649Z,103018.50
2023-02-06T03:53:59.966Z,103015.16
2023-02-06T03:56:35.377Z,103015.16
2023-02-06T03:59:01.992Z,103021.22
2023-02-06T04:01:28.571Z,103020.25
2023-02-06T04:03:55.315Z,103027.75
2023-02-06T04:06:22.030Z,103031.25
2023-02-06T04:08:48.581Z,103027.81
2023-02-06T04:11:15.246Z,103017.03
2023-02-06T04:13:41.785Z,103011.22
2023-02-06T04:16:08.375Z,102995.09
2023-02-06T04:18:34.946Z,103002.09
2023-02-06T04:21:05.520Z,103008.22
2023-02-06T04:23:32.184Z,103019.94
2023-02-06T04:25:58.697Z,103021.81
2023-02-06T04:28:25.293Z,103018.53
2023-02-06T04:30:51.964Z,103020.97
2023-02-06T04:33:18.593Z,103012.25
2023-02-06T04:35:45.167Z,103017.34
2023-02-06T04:38:11.682Z,103014.31
2023-02-06T04:40:38.253Z,103011.53
2023-02-06T04:43:04.772Z,102997.78
2023-02-06T04:45:31.345Z,102993.25
2023-02-06T04:48:00.764Z,102996.59
2023-02-06T04:50:31.461Z,102994.97
2023-02-06T04:52:58.586Z,103002.84
2023-02-06T04:55:25.201Z,103003.81
2023-02-06T04:57:51.764Z,103008.06
2023-02-06T05:00:18.326Z,103004.50
2023-02-06T05:02:45.294Z,102998.59
2023-02-06T05:05:11.860Z,102985.72
2023-02-06T05:07:38.494Z,102991.81
2023-02-06T05:10:05.347Z,102983.16
2023-02-06T05:12:31.888Z,102986.25
2023-02-06T05:15:00.344Z,102979.44
2023-02-06T05:17:29.941Z,102965.53
2023-02-06T05:19:58.161Z,102967.91
2023-02-06T05:22:25.057Z,102968.88
2023-02-06T05:24:51.621Z,102946.63
2023-02-06T05:27:18.140Z,102950.09
2023-02-06T05:29:44.713Z,102949.97
2023-02-06T05:32:11.323Z,102943.19
2023-02-06T05:34:38.062Z,102946.72
2023-02-06T05:37:04.602Z,102939.75
2023-02-06T05:39:31.291Z,102943.22
2023-02-06T05:41:57.843Z,102941.47
2023-02-06T05:44:24.448Z,102942.44
2023-02-06T05:46:51.167Z,102932.91
2023-02-06T05:49:17.799Z,102933.09
2023-02-06T05:51:44.535Z,102924.47
2023-02-06T05:54:11.145Z,102930.56
2023-02-06T05:56:37.665Z,102937.47
2023-02-06T05:59:04.263Z,102937.25
2023-02-06T06:01:30.784Z,102929.50
2023-02-06T06:03:57.324Z,102922.53
2023-02-06T06:06:23.993Z,102921.47
2023-02-06T06:08:50.602Z,102922.22
2023-02-06T06:11:17.194Z,102924.16
2023-02-06T06:13:43.742Z,102920.53
2023-02-06T06:16:10.362Z,102918.63
2023-02-06T06:18:37.118Z,102913.44
2023-02-06T06:21:03.738Z,102917.75
2023-02-06T06:23:30.382Z,102922.81
2023-02-06T06:25:56.922Z,102920.13
2023-02-06T06:28:23.505Z,102912.41
2023-02-06T06:30:50.101Z,102920.28
2023-02-06T06:33:17.940Z,102921.72
2023-02-06T06:35:44.647Z,102923.47
2023-02-06T06:38:11.177Z,102917.25
2023-02-06T06:40:37.902Z,102920.66
2023-02-06T06:43:04.518Z,102924.78
2023-02-06T06:45:31.189Z,102927.88
2023-02-06T06:47:57.733Z,102917.69
2023-02-06T06:50:24.257Z,102917.66
2023-02-06T06:52:50.835Z,102926.03
2023-02-06T06:55:19.636Z,102925.13
2023-02-06T06:57:46.630Z,102923.38
2023-02-06T07:00:13.914Z,102922.53
2023-02-06T07:02:40.566Z,102923.88
2023-02-06T07:05:09.661Z,102924.03
2023-02-06T07:07:36.694Z,102926.59
2023-02-06T07:10:03.448Z,102919.84
2023-02-06T07:12:30.032Z,102916.34
2023-02-06T07:14:56.664Z,102913.53
2023-02-06T07:17:23.321Z,102921.28
2023-02-06T07:19:52.502Z,102919.63
2023-02-06T07:22:20.353Z,102911.88
2023-02-06T07:24:47.022Z,102917.19
2023-02-06T07:27:13.602Z,102913.72
2023-02-06T07:29:40.144Z,102917.19
2023-02-06T07:32:06.701Z,102907.78
2023-02-06T07:34:34.204Z,102914.44
2023-02-06T07:37:00.935Z,102911.00
2023-02-06T07:39:30.463Z,102908.50
2023-02-06T07:41:57.047Z,102903.38
2023-02-06T07:44:23.559Z,102912.03
2023-02-06T07:46:52.099Z,102902.50
2023-02-06T07:49:18.714Z,102904.25
2023-02-06T07:51:46.155Z,102910.25
2023-02-06T07:54:12.843Z,102904.97
2023-02-06T07:56:39.453Z,102908.34
2023-02-06T07:59:06.392Z,102912.06
2023-02-06T08:01:33.057Z,102905.19
2023-02-06T08:03:59.723Z,102915.53
2023-02-06T08:06:26.501Z,102906.97
2023-02-06T08:08:55.041Z,102909.63
2023-02-06T08:11:21.988Z,102903.69
2023-02-06T08:13:48.702Z,102895.19
2023-02-06T08:16:16.661Z,102891.06
2023-02-06T08:18:43.260Z,102891.91
2023-02-06T08:21:11.278Z,102897.06
2023-02-06T08:23:38.628Z,102898.13
2023-02-06T08:26:12.883Z,102900.22
2023-02-06T08:28:41.950Z,102906.22
2023-02-06T08:31:13.760Z,102906.97
2023-02-06T08:33:40.656Z,102903.63
2023-02-06T08:36:07.913Z,102900.44
2023-02-06T08:38:35.058Z,102896.19
2023-02-06T08:41:01.642Z,102900.41
2023-02-06T08:43:28.333Z,102893.09
2023-02-06T08:45:57.508Z,102888.31
2023-02-06T08:48:24.104Z,102885.56
2023-02-06T08:50:50.643Z,102884.38
2023-02-06T08:53:17.319Z,102882.72
2023-02-06T08:55:43.877Z,102874.59
2023-02-06T08:58:10.427Z,102875.16
2023-02-06T09:00:37.017Z,102884.59
2023-02-06T09:03:05.580Z,102888.72
2023-02-06T09:05:32.450Z,102890.09
2023-02-06T09:07:59.063Z,102893.56
2023-02-06T09:10:28.089Z,102892.31
2023-02-06T09:12:55.255Z,102881.41
2023-02-06T09:15:22.057Z,102877.91
2023-02-06T09:17:48.624Z,102881.69
2023-02-06T09:20:15.349Z,102882.00
2023-02-06T09:22:42.027Z,102873.94
2023-02-06T09:25:08.630Z,102872.16
2023-02-06T09:27:35.867Z,102861.16
2023-02-06T09:30:02.502Z,102861.22
2023-02-06T09:32:29.132Z,102865.63
2023-02-06T09:34:55.657Z,102879.63
2023-02-06T09:37:22.817Z,102872.03
2023-02-06T09:39:49.332Z,102866.13
2023-02-06T09:42:29.921Z,102858.50
2023-02-06T09:45:02.155Z,102857.56
2023-02-06T09:47:36.040Z,102872.38
2023-02-06T09:50:07.850Z,102878.44
2023-02-06T09:52:37.599Z,102867.50
2023-02-06T09:55:19.305Z,102846.81
2023-02-06T09:57:48.954Z,102852.06
2023-02-06T10:00:27.441Z,102857.31
2023-02-06T10:03:12.744Z,102853.97
2023-02-06T10:05:42.426Z,102856.72
2023-02-06T10:08:21.120Z,102846.47
2023-02-06T10:10:47.946Z,102849.09
2023-02-06T10:13:32.769Z,102853.66
2023-02-06T10:16:01.766Z,102846.78
2023-02-06T10:18:44.297Z,102829.50
2023-02-06T10:21:25.648Z,102832.03
2023-02-06T10:24:00.606Z,102837.19
2023-02-06T10:26:27.893Z,102823.31
2023-02-06T10:28:56.426Z,102822.47
2023-02-06T10:31:38.386Z,102814.63
2023-02-06T10:34:28.186Z,102810.53
2023-02-06T10:36:54.749Z,102814.13
2023-02-06T10:39:39.364Z,102807.13
2023-02-06T10:42:12.728Z,102809.75
2023-02-06T10:44:51.262Z,102797.66
2023-02-06T10:47:32.715Z,102796.00
2023-02-06T10:50:03.096Z,102797.66
2023-02-06T10:52:32.838Z,102800.38
2023-02-06T10:55:26.598Z,102792.59
2023-02-06T10:58:00.163Z,102788.31
2023-02-06T11:00:27.503Z,102783.13
2023-02-06T11:03:07.283Z,102785.69
2023-02-06T11:05:35.389Z,102787.47
2023-02-06T11:08:02.315Z,102784.13
2023-02-06T11:10:28.937Z,102784.03
2023-02-06T11:13:01.692Z,102784.97
2023-02-06T11:15:36.815Z,102784.03
2023-02-06T11:18:05.046Z,102777.22
2023-02-06T11:20:33.473Z,102772.88
2023-02-06T11:23:17.269Z,102767.75
2023-02-06T11:25:44.149Z,102768.59
2023-02-06T11:28:15.275Z,102774.69
2023-02-06T11:30:44.064Z,102758.16
2023-02-06T11:33:19.634Z,102771.31
2023-02-06T11:35:54.848Z,102759.22
2023-02-06T11:38:22.938Z,102749.50
2023-02-06T11:41:03.539Z,102750.41
2023-02-06T11:43:31.936Z,102740.88
2023-02-06T11:46:09.774Z,102744.38
2023-02-06T11:48:36.472Z,102734.78
2023-02-06T11:51:03.775Z,102721.81
2023-02-06T11:53:30.635Z,102718.38
2023-02-06T11:56:02.498Z,102721.00
2023-02-06T11:58:29.765Z,102707.09
2023-02-06T12:01:01.507Z,102695.78
2023-02-06T12:03:43.419Z,102701.81
2023-02-06T12:06:13.307Z,102697.50
2023-02-06T12:08:46.059Z,102691.47
2023-02-06T12:11:23.178Z,102696.69
2023-02-06T12:13:53.143Z,102679.28
2023-02-06T12:16:19.808Z,102682.75
2023-02-06T12:18:49.766Z,102690.59
2023-02-06T12:21:21.326Z,102679.28
2023-02-06T12:23:52.976Z,102676.66
2023-02-06T12:26:20.789Z,102677.56
2023-02-06T12:28:50.428Z,102672.31
2023-02-06T12:31:21.287Z,102665.34
2023-02-06T12:33:54.762Z,102664.47
2023-02-06T12:36:21.692Z,102664.50
2023-02-06T12:39:06.222Z,102651.44
2023-02-06T12:41:39.178Z,102661.00
2023-02-06T12:44:18.088Z,102668.84
2023-02-06T12:46:46.613Z,102672.31
2023-02-06T12:49:17.140Z,102673.22
2023-02-06T12:51:52.960Z,102659.25
2023-02-06T12:54:19.452Z,102672.34
2023-02-06T12:56:48.887Z,102663.59
2023-02-06T12:59:15.451Z,102670.56
2023-02-06T13:04:39.114Z,102667.13
2023-02-06T13:07:11.404Z,102670.59
2023-02-06T13:09:47.375Z,102661.88
2023-02-06T13:12:16.075Z,102659.25
2023-02-06T13:14:54.509Z,102656.63
2023-02-06T13:17:21.294Z,102662.75
2023-02-06T13:19:47.835Z,102665.38
2023-02-06T13:22:15.761Z,102650.53
2023-02-06T13:24:43.741Z,102653.16
2023-02-06T13:27:12.126Z,102649.66
2023-02-06T13:29:46.246Z,102668.84
2023-02-06T13:32:15.007Z,102668.81
2023-02-06T13:34:44.844Z,102664.47
2023-02-06T13:37:26.657Z,102659.22
2023-02-06T13:40:13.204Z,102654.00
2023-02-06T13:42:58.180Z,102659.25
2023-02-06T13:45:27.822Z,102657.50
2023-02-06T13:48:06.746Z,102642.69
2023-02-06T13:50:49.854Z,102646.19
2023-02-06T13:53:31.014Z,102648.81
2023-02-06T13:56:16.467Z,102647.06
2023-02-06T13:59:06.554Z,102641.84
2023-02-06T14:01:33.710Z,102634.00
2023-02-06T14:04:00.869Z,102634.00
2023-02-06T14:06:27.383Z,102627.94
2023-02-06T14:08:53.881Z,102623.56
2023-02-06T14:11:39.334Z,102622.69
2023-02-06T14:14:16.753Z,102621.81
2023-02-06T14:17:02.492Z,102627.06
2023-02-06T14:19:32.069Z,102613.09
2023-02-06T14:22:04.679Z,102607.03
2023-02-06T14:24:31.221Z,102602.66
2023-02-06T14:27:04.006Z,102600.91
2023-02-06T14:29:42.038Z,102600.06
2023-02-06T14:32:23.911Z,102605.28
2023-02-06T14:34:53.550Z,102594.81
2023-02-06T14:37:43.173Z,102600.06
2023-02-06T14:40:29.825Z,102587.84
2023-02-06T14:42:57.597Z,102583.53
2023-02-06T14:45:33.755Z,102579.16
2023-02-06T14:48:06.677Z,102574.81
2023-02-06T14:50:40.523Z,102577.41
2023-02-06T14:53:08.591Z,102560.03
2023-02-06T14:55:40.435Z,102565.25
2023-02-06T14:58:17.541Z,102565.25
2023-02-06T15:00:44.234Z,102548.66
2023-02-06T15:03:14.213Z,102546.94
2023-02-06T15:05:40.909Z,102551.28
2023-02-06T15:08:07.902Z,102545.19
2023-02-06T15:10:36.078Z,102545.22
2023-02-06T15:13:03.424Z,102539.97
2023-02-06T15:15:32.018Z,102539.94
2023-02-06T15:17:59.643Z,102540.81
2023-02-06T15:20:26.271Z,102535.59
2023-02-06T15:22:55.325Z,102529.50
2023-02-06T15:25:41.670Z,102532.13
2023-02-06T15:28:13.023Z,102532.97
2023-02-06T15:30:40.080Z,102528.63
2023-02-06T15:33:09.170Z,102515.56
2023-02-06T15:35:37.013Z,102532.97
2023-02-06T15:38:08.637Z,102538.13
2023-02-06T15:40:39.881Z,102539.03
2023-02-06T15:43:06.825Z,102531.22
2023-02-06T15:45:36.119Z,102546.00
2023-02-06T15:48:10.340Z,102549.47
2023-02-06T15:50:37.334Z,102544.22
2023-02-06T15:53:36.257Z,102541.63
2023-02-06T15:56:04.679Z,102535.56
2023-02-06T15:58:32.224Z,102538.13
2023-02-06T16:00:59.161Z,102539.91
2023-02-06T16:03:27.324Z,102537.28
2023-02-06T16:05:54.369Z,102544.22
2023-02-06T16:08:24.023Z,102553.75
2023-02-06T16:10:52.875Z,102546.75
2023-02-06T16:13:23.468Z,102538.94
2023-02-06T16:16:02.214Z,102540.69
2023-02-06T16:18:31.914Z,102545.03
2023-02-06T16:21:22.281Z,102544.13
2023-02-06T16:24:17.834Z,102538.06
2023-02-06T16:26:49.076Z,102528.50
2023-02-06T16:29:25.453Z,102531.13
2023-02-06T16:32:10.645Z,102543.28
2023-02-06T16:34:41.444Z,102539.78
2023-02-06T16:37:15.296Z,102544.97
2023-02-06T16:39:42.947Z,102523.25
2023-02-06T16:42:19.823Z,102528.41
2023-02-06T16:44:49.758Z,102519.75
2023-02-06T16:47:18.514Z,102522.31
2023-02-06T16:49:48.304Z,102527.59
2023-02-06T16:52:20.572Z,102527.59
2023-02-06T16:54:47.946Z,102530.19
2023-02-06T16:57:26.456Z,102522.38
2023-02-06T16:59:53.168Z,102534.56
2023-02-06T17:02:19.843Z,102535.41
2023-02-06T17:04:46.544Z,102532.84
2023-02-06T17:07:18.039Z,102533.75
2023-02-06T17:09:45.245Z,102531.09
2023-02-06T17:12:13.379Z,102544.13
2023-02-06T17:14:40.077Z,102550.22
2023-02-06T17:17:06.751Z,102551.06
2023-02-06T17:19:33.358Z,102549.34
2023-02-06T17:22:00.092Z,102552.84
2023-02-06T17:24:26.743Z,102554.59
2023-02-06T17:26:53.307Z,102551.06
2023-02-06T17:29:19.898Z,102553.66
2023-02-06T17:31:46.708Z,102548.41
2023-02-06T17:34:13.367Z,102552.81
2023-02-06T17:36:40.927Z,102564.06
2023-02-06T17:39:07.731Z,102567.59
2023-02-06T17:41:36.594Z,102564.13
2023-02-06T17:44:03.213Z,102561.50
2023-02-06T17:46:29.814Z,102565.84
2023-02-06T17:48:58.562Z,102561.50
2023-02-06T17:51:28.266Z,102560.63
2023-02-06T17:53:54.875Z,102572.75
2023-02-06T17:56:21.566Z,102570.16
2023-02-06T17:58:48.294Z,102569.28
2023-02-06T18:01:17.165Z,102577.97
2023-02-06T18:03:44.373Z,102581.47
2023-02-06T18:06:11.870Z,102575.38
2023-02-06T18:08:41.985Z,102576.28
2023-02-06T18:11:26.658Z,102577.97
2023-02-06T18:13:53.847Z,102571.91
2023-02-06T18:16:21.993Z,102577.09
2023-02-06T18:18:48.819Z,102572.78
2023-02-06T18:21:15.963Z,102571.06
2023-02-06T18:23:42.534Z,102574.53
2023-02-06T18:26:09.579Z,102568.47
2023-02-06T18:28:36.880Z,102573.69
2023-02-06T18:31:03.989Z,102576.28
2023-02-06T18:33:31.451Z,102569.31
2023-02-06T18:35:58.394Z,102569.31
2023-02-06T18:38:27.397Z,102573.59
2023-02-06T18:40:53.959Z,102577.09
2023-02-06T18:43:20.488Z,102575.38
2023-02-06T18:45:47.051Z,102578.88
2023-02-06T18:48:13.636Z,102574.53
2023-02-06T18:50:42.451Z,102580.63
2023-02-06T18:53:09.389Z,102574.56
2023-02-06T18:55:40.137Z,102571.94
2023-02-06T18:58:06.774Z,102571.88
2023-02-06T19:00:35.943Z,102561.47
2023-02-06T19:03:02.807Z,102564.94
2023-02-06T19:05:30.807Z,102545.84
2023-02-06T19:07:57.669Z,102545.84
2023-02-06T19:10:25.883Z,102542.25
2023-02-06T19:12:52.444Z,102543.22
2023-02-06T19:15:19.244Z,102541.47
2023-02-06T19:17:46.782Z,102542.31
2023-02-06T19:20:13.422Z,102552.75
2023-02-06T19:22:40.012Z,102536.19
2023-02-06T19:25:10.559Z,102537.06
2023-02-06T19:27:40.405Z,102537.94
2023-02-06T19:30:08.105Z,102532.66
2023-02-06T19:32:34.892Z,102525.72
2023-02-06T19:35:01.550Z,102530.00
2023-02-06T19:37:28.191Z,102530.91
2023-02-06T19:39:54.717Z,102538.72
2023-02-06T19:42:21.410Z,102523.06
2023-02-06T19:44:51.240Z,102523.84
2023-02-06T19:47:17.851Z,102529.06
2023-02-06T19:49:44.467Z,102514.31
2023-02-06T19:52:12.204Z,102516.94
2023-02-06T19:54:38.870Z,102509.94
2023-02-06T19:57:05.418Z,102519.47
2023-02-06T19:59:32.043Z,102508.16
2023-02-06T20:02:02.268Z,102517.72
2023-02-06T20:04:31.011Z,102526.44
2023-02-06T20:06:58.215Z,102511.63
2023-02-06T20:09:25.367Z,102517.66
2023-02-06T20:11:52.118Z,102505.41
2023-02-06T20:14:19.298Z,102501.16
2023-02-06T20:16:46.398Z,102494.16
2023-02-06T20:19:15.644Z,102500.22
2023-02-06T20:21:44.005Z,102504.63
2023-02-06T20:24:12.644Z,102515.09
2023-02-06T20:26:39.997Z,102517.66
2023-02-06T20:29:07.059Z,102503.84
2023-02-06T20:31:34.572Z,102500.41
2023-02-06T20:34:01.634Z,102504.78
2023-02-06T20:36:29.144Z,102504.84
2023-02-06T20:38:57.204Z,102510.00
2023-02-06T20:41:25.479Z,102509.13
2023-02-06T20:43:52.124Z,102506.53
2023-02-06T20:46:19.671Z,102489.19
2023-02-06T20:48:46.920Z,102492.63
2023-02-06T20:51:14.353Z,102494.38
2023-02-06T20:53:40.957Z,102485.69
2023-02-06T20:56:11.889Z,102487.47
2023-02-06T20:58:39.338Z,102490.94
2023-02-06T21:01:19.337Z,102491.84
2023-02-06T21:03:46.497Z,102495.28
2023-02-06T21:06:13.343Z,102491.84
2023-02-06T21:08:40.129Z,102501.38
2023-02-06T21:11:06.686Z,102480.50
2023-02-06T21:13:33.577Z,102490.94
2023-02-06T21:16:00.387Z,102502.25
2023-02-06T21:18:28.387Z,102505.72
2023-02-06T21:20:55.770Z,102493.53
2023-02-06T21:23:22.824Z,102498.78
2023-02-06T21:25:53.549Z,102501.38
2023-02-06T21:28:20.539Z,102498.75
2023-02-06T21:30:47.933Z,102505.66
2023-02-06T21:33:14.989Z,102518.69
2023-02-06T21:35:48.189Z,102516.94
2023-02-06T21:38:14.749Z,102506.53
2023-02-06T21:40:41.354Z,102514.34
2023-02-06T21:43:07.963Z,102501.25
2023-02-06T21:45:34.549Z,102500.41
2023-02-06T21:48:01.640Z,102503.84
2023-02-06T21:50:28.132Z,102501.19
2023-02-06T21:52:54.615Z,102501.25
2023-02-06T21:55:21.244Z,102512.50
2023-02-06T21:57:47.912Z,102500.34
2023-02-06T22:00:14.924Z,102490.72
2023-02-06T22:02:41.613Z,102486.41
2023-02-06T22:05:08.355Z,102500.25
2023-02-06T22:07:38.040Z,102499.34
2023-02-06T22:10:05.456Z,102489.78
2023-02-06T22:12:32.180Z,102488.03
2023-02-06T22:14:58.844Z,102477.63
2023-02-06T22:17:25.764Z,102474.13
2023-02-06T22:19:55.179Z,102484.53
2023-02-06T22:22:21.894Z,102484.47
2023-02-06T22:24:51.714Z,102473.16
2023-02-06T22:27:18.297Z,102477.47
2023-02-06T22:29:44.918Z,102484.44
2023-02-06T22:32:11.659Z,102488.00
2023-02-06T22:34:38.253Z,102499.19
2023-02-06T22:37:04.927Z,102499.22
2023-02-06T22:39:31.656Z,102500.06
2023-02-06T22:41:58.152Z,102493.97
2023-02-06T22:44:24.698Z,102496.53
2023-02-06T22:46:52.846Z,102499.09
2023-02-06T22:49:20.555Z,102500.84
2023-02-06T22:51:47.409Z,102499.09
2023-02-06T22:54:14.348Z,102500.78
2023-02-06T22:56:41.364Z,102503.47
2023-02-06T22:59:07.928Z,102501.69
2023-02-06T23:01:36.433Z,102498.19
2023-02-06T23:04:03.889Z,102494.69
2023-02-06T23:06:31.636Z,102503.44
2023-02-06T23:08:58.877Z,102500.84
2023-02-06T23:11:26.196Z,102505.19
2023-02-06T23:13:53.859Z,102498.28
2023-02-06T23:16:20.985Z,102501.75
2023-02-06T23:18:47.961Z,102498.28
2023-02-06T23:21:15.164Z,102508.75
2023-02-06T23:23:42.363Z,102507.81
2023-02-06T23:26:10.901Z,102527.84
2023-02-06T23:28:38.334Z,102526.22
2023-02-06T23:31:05.831Z,102516.75
2023-02-06T23:33:32.671Z,102520.97
2023-02-06T23:36:07.736Z,102514.91
2023-02-06T23:38:34.324Z,102520.91
2023-02-06T23:41:20.414Z,102520.00
2023-02-06T23:43:58.088Z,102520.00
2023-02-06T23:46:25.434Z,102508.72
2023-02-06T23:48:52.602Z,102507.84
2023-02-06T23:51:20.942Z,102515.56
2023-02-06T23:53:48.279Z,102517.25
2023-02-06T23:56:16.266Z,102506.78
2023-02-06T23:58:43.224Z,102511.09
